Time;durP1;ratioP1;P1;durP2;ratioP2;P2;SDS_P1;SDS_P2;PMS_P1;PMS_P2;Temp;Humidity;BMP_temperature;BMP_pressure;BME280_temperature;BME280_humidity;BME280_pressure;Samples;Min_cycle;Max_cycle;Signal;HPM_P1;HPM_P2
2023/01/06 00:00:27;;;;;;;2.67;1.90;;;;;;;9.49;100.00;96914.09;4977713;28;20314;-69
2023/01/06 00:02:54;;;;;;;4.20;2.17;;;;;;;9.59;100.00;96911.38;4977722;28;20214;-69
2023/01/06 00:05:21;;;;;;;4.50;2.70;;;;;;;9.38;100.00;96918.78;4977209;28;20305;-69
2023/01/06 00:07:49;;;;;;;4.83;2.30;;;;;;;9.50;100.00;96910.50;4977291;28;20211;-69
2023/01/06 00:10:15;;;;;;;4.20;2.70;;;;;;;9.41;100.00;96914.03;4977949;28;20811;-69
2023/01/06 00:12:44;;;;;;;4.83;2.53;;;;;;;9.62;100.00;96900.53;4980430;28;20207;-69
2023/01/06 00:15:11;;;;;;;3.83;2.00;;;;;;;9.60;100.00;96898.06;4980625;28;20199;-69
2023/01/06 00:17:37;;;;;;;3.97;2.33;;;;;;;9.59;100.00;96900.84;4981385;28;20266;-69
2023/01/06 00:20:07;;;;;;;3.20;2.17;;;;;;;9.59;100.00;96895.59;4981169;28;20227;-69
2023/01/06 00:22:33;;;;;;;3.87;2.17;;;;;;;9.51;100.00;96888.47;4980905;28;20204;-69
2023/01/06 00:25:00;;;;;;;4.93;2.37;;;;;;;9.58;100.00;96888.66;4980703;28;20209;-69
2023/01/06 00:27:26;;;;;;;3.43;2.20;;;;;;;9.59;100.00;96882.44;4980827;28;20265;-69
2023/01/06 00:29:53;;;;;;;4.57;2.63;;;;;;;9.56;100.00;96888.81;4980742;28;20203;-69
2023/01/06 00:32:19;;;;;;;4.80;2.60;;;;;;;9.70;100.00;96888.25;4981559;28;20218;-69
2023/01/06 00:34:46;;;;;;;4.10;2.80;;;;;;;9.79;100.00;96877.59;4980820;28;20265;-69
2023/01/06 00:37:13;;;;;;;5.83;3.03;;;;;;;9.86;100.00;96878.66;4980162;28;20281;-69
2023/01/06 00:39:40;;;;;;;5.63;2.80;;;;;;;9.73;100.00;96878.22;4980898;28;20269;-69
2023/01/06 00:42:06;;;;;;;4.10;2.60;;;;;;;9.69;100.00;96871.63;4979085;28;20240;-69
2023/01/06 00:44:35;;;;;;;4.00;2.67;;;;;;;9.73;100.00;96878.22;4978757;28;20207;-69
2023/01/06 00:47:03;;;;;;;3.83;2.40;;;;;;;9.72;100.00;96876.59;4980089;28;20566;-69
2023/01/06 00:49:30;;;;;;;4.50;2.83;;;;;;;9.58;100.00;96872.88;4980454;28;20736;-69
2023/01/06 00:51:56;;;;;;;3.47;2.50;;;;;;;9.61;100.00;96869.94;4980166;28;20210;-69
2023/01/06 00:54:24;;;;;;;4.70;3.07;;;;;;;9.65;100.00;96874.75;4979797;28;20207;-69
2023/01/06 00:56:52;;;;;;;5.33;3.07;;;;;;;9.66;100.00;96871.13;4980527;28;20222;-69
2023/01/06 00:59:21;;;;;;;5.43;2.43;;;;;;;9.62;100.00;96874.22;4980206;28;20214;-69
2023/01/06 01:01:49;;;;;;;3.73;2.57;;;;;;;9.65;100.00;96871.25;4980335;28;20274;-69
2023/01/06 01:04:16;;;;;;;4.80;2.57;;;;;;;9.60;100.00;96870.91;4979829;28;20207;-69
2023/01/06 01:06:44;;;;;;;4.90;2.67;;;;;;;9.69;100.00;96866.34;4979970;28;20227;-69
2023/01/06 01:09:14;;;;;;;3.63;2.07;;;;;;;9.75;100.00;96860.47;4979676;28;20289;-69
2023/01/06 01:14:26;;;;;;;6.47;2.40;;;;;;;9.59;100.00;96859.56;4979188;28;21128;-69
2023/01/06 01:16:52;;;;;;;5.70;2.10;;;;;;;9.59;100.00;96862.19;4979881;28;20235;-69
2023/01/06 01:19:19;;;;;;;3.33;2.23;;;;;;;9.56;100.00;96864.31;4980019;28;20214;-69
2023/01/06 01:21:46;;;;;;;2.87;2.27;;;;;;;9.55;100.00;96857.41;4980364;28;20235;-69
2023/01/06 01:24:12;;;;;;;4.00;2.30;;;;;;;9.56;100.00;96853.78;4978141;28;20207;-69
2023/01/06 01:26:39;;;;;;;5.27;2.60;;;;;;;9.53;100.00;96860.19;4980352;28;20709;-69
2023/01/06 01:29:09;;;;;;;3.87;2.27;;;;;;;9.63;100.00;96854.81;4980046;28;20207;-69
2023/01/06 01:31:36;;;;;;;3.20;2.30;;;;;;;9.51;100.00;96856.06;4979768;28;21152;-69
2023/01/06 01:34:02;;;;;;;3.50;2.30;;;;;;;9.51;100.00;96842.91;4979151;28;20207;-69
2023/01/06 01:36:29;;;;;;;3.60;2.20;;;;;;;9.50;100.00;96846.53;4979415;28;20230;-69
2023/01/06 01:38:56;;;;;;;3.53;2.43;;;;;;;9.53;100.00;96848.84;4979196;28;20249;-69
2023/01/06 01:41:24;;;;;;;4.87;2.40;;;;;;;9.53;100.00;96846.22;4979469;28;20608;-69
2023/01/06 01:43:52;;;;;;;5.20;2.27;;;;;;;9.52;100.00;96853.28;4979692;28;20203;-69
2023/01/06 01:46:24;;;;;;;2.83;2.10;;;;;;;9.59;100.00;96850.84;4979696;28;20231;-69
2023/01/06 01:48:52;;;;;;;3.70;2.37;;;;;;;9.51;100.00;96845.53;4978992;28;20207;-69
2023/01/06 01:51:24;;;;;;;4.73;2.60;;;;;;;9.41;100.00;96856.16;4981391;28;20576;-69
2023/01/06 01:53:55;;;;;;;5.17;2.20;;;;;;;9.43;100.00;96845.50;4978952;28;20218;-69
2023/01/06 01:56:25;;;;;;;4.80;2.80;;;;;;;9.43;100.00;96853.38;4979138;28;21132;-69
2023/01/06 01:58:55;;;;;;;4.07;2.50;;;;;;;9.46;100.00;96847.81;4979054;28;20391;-69
2023/01/06 02:01:23;;;;;;;3.87;1.93;;;;;;;9.39;100.00;96844.16;4979359;28;20234;-69
2023/01/06 02:03:50;;;;;;;4.63;2.80;;;;;;;9.33;100.00;96844.75;4978438;28;20238;-69
2023/01/06 02:06:20;;;;;;;6.83;2.70;;;;;;;9.47;100.00;96847.66;4979364;28;20242;-69
2023/01/06 02:08:54;;;;;;;4.33;2.60;;;;;;;9.49;100.00;96843.06;4978918;28;20219;-69
2023/01/06 02:11:23;;;;;;;4.70;2.83;;;;;;;9.51;100.00;96843.75;4978859;28;20583;-69
2023/01/06 02:13:57;;;;;;;3.17;2.20;;;;;;;9.55;100.00;96842.44;4978354;28;20321;-69
2023/01/06 02:16:34;;;;;;;3.00;2.20;;;;;;;9.40;100.00;96837.91;4979044;28;20231;-69
2023/01/06 02:19:12;;;;;;;4.67;2.60;;;;;;;9.44;100.00;96841.88;4978361;28;20222;-69
2023/01/06 02:21:54;;;;;;;3.17;2.37;;;;;;;9.39;100.00;96838.88;4978825;28;20242;-69
2023/01/06 02:24:45;;;;;;;4.13;2.67;;;;;;;9.40;100.00;96832.66;4978193;28;20214;-69
2023/01/06 02:27:48;;;;;;;4.90;3.13;;;;;;;9.44;100.00;96829.53;4978687;28;20231;-69
2023/01/06 02:30:46;;;;;;;4.07;2.57;;;;;;;9.43;100.00;96819.19;4978228;28;20215;-70
2023/01/06 02:33:21;;;;;;;5.03;2.60;;;;;;;9.36;100.00;96823.44;4978812;28;20207;-69
2023/01/06 02:36:03;;;;;;;4.30;2.63;;;;;;;9.27;100.00;96812.03;4977233;28;21296;-69
2023/01/06 02:38:40;;;;;;;4.87;2.97;;;;;;;9.28;100.00;96818.13;4979579;28;20203;-69
2023/01/06 02:41:20;;;;;;;3.87;2.50;;;;;;;9.26;100.00;96805.09;4978598;28;20254;-69
2023/01/06 02:43:55;;;;;;;4.17;2.70;;;;;;;9.31;100.00;96809.91;4978518;28;20199;-69
2023/01/06 02:46:34;;;;;;;3.67;2.57;;;;;;;9.29;100.00;96801.34;4978632;28;20515;-69
2023/01/06 02:49:13;;;;;;;5.47;2.63;;;;;;;9.18;100.00;96806.88;4978591;28;20211;-69
2023/01/06 02:51:46;;;;;;;6.00;3.33;;;;;;;9.25;100.00;96800.00;4978108;28;20247;-69
2023/01/06 02:54:20;;;;;;;4.27;2.97;;;;;;;9.23;100.00;96794.91;4978130;28;20690;-69
2023/01/06 02:56:51;;;;;;;5.33;3.33;;;;;;;9.18;100.00;96804.25;4977673;28;20233;-69
2023/01/06 02:59:23;;;;;;;5.63;3.07;;;;;;;9.14;100.00;96805.53;4978493;28;20210;-69
2023/01/06 03:01:53;;;;;;;5.43;3.00;;;;;;;9.07;100.00;96803.69;4977907;28;20247;-68
2023/01/06 03:04:27;;;;;;;5.77;3.10;;;;;;;9.08;100.00;96803.53;4977827;28;20928;-69
2023/01/06 03:06:56;;;;;;;5.73;3.13;;;;;;;9.10;100.00;96801.59;4977634;28;20219;-69
2023/01/06 03:09:29;;;;;;;6.37;3.60;;;;;;;9.11;100.00;96797.94;4978408;28;20207;-69
2023/01/06 03:11:56;;;;;;;5.70;3.47;;;;;;;9.00;100.00;96792.97;4978055;28;21076;-69
2023/01/06 03:14:27;;;;;;;4.53;2.93;;;;;;;9.06;100.00;96802.84;4975576;28;20230;-69
2023/01/06 03:16:54;;;;;;;5.77;3.50;;;;;;;8.92;100.00;96794.69;4977870;28;20718;-69
2023/01/06 03:19:23;;;;;;;5.47;3.13;;;;;;;8.97;100.00;96801.13;4978220;28;20245;-69
2023/01/06 03:21:52;;;;;;;5.70;3.50;;;;;;;8.94;100.00;96800.63;4977695;28;20231;-69
2023/01/06 03:24:18;;;;;;;6.30;3.30;;;;;;;8.87;100.00;96802.22;4977699;28;20595;-69
2023/01/06 03:26:48;;;;;;;7.80;4.13;;;;;;;8.92;100.00;96795.50;4977899;28;20218;-69
2023/01/06 03:29:18;;;;;;;7.07;3.87;;;;;;;8.85;100.00;96799.75;4977923;28;20299;-69
2023/01/06 03:31:57;;;;;;;6.97;3.80;;;;;;;8.85;100.00;96798.94;4977928;28;20595;-69
2023/01/06 03:34:38;;;;;;;7.47;4.17;;;;;;;8.93;100.00;96802.44;4977568;28;20206;-69
2023/01/06 03:37:13;;;;;;;7.77;3.53;;;;;;;8.82;100.00;96796.59;4977370;28;20231;-69
2023/01/06 03:39:50;;;;;;;5.93;3.57;;;;;;;8.81;100.00;96798.41;4977377;28;20207;-69
2023/01/06 03:45:31;;;;;;;7.33;3.03;;;;;;;8.82;100.00;96810.56;4976952;28;20268;-69
2023/01/06 03:48:05;;;;;;;6.43;3.30;;;;;;;8.70;100.00;96805.69;4981304;28;20298;-69
2023/01/06 03:50:37;;;;;;;8.00;3.37;;;;;;;8.70;100.00;96813.56;4982402;28;20211;-69
2023/01/06 03:53:11;;;;;;;6.47;3.70;;;;;;;8.71;100.00;96818.69;4981276;28;20214;-69
2023/01/06 03:55:38;;;;;;;7.70;4.10;;;;;;;8.58;100.00;96814.81;4981504;28;20218;-69
2023/01/06 03:58:08;;;;;;;8.33;3.93;;;;;;;8.66;100.00;96815.69;4981753;28;20203;-69
2023/01/06 04:00:37;;;;;;;6.43;3.50;;;;;;;8.68;100.00;96815.53;4981165;28;20257;-69
2023/01/06 04:03:07;;;;;;;6.13;3.37;;;;;;;8.56;100.00;96806.22;4980851;28;20320;-69
2023/01/06 04:05:35;;;;;;;7.03;3.80;;;;;;;8.60;100.00;96811.03;4981731;28;20234;-69
2023/01/06 04:08:01;;;;;;;7.03;3.70;;;;;;;8.46;100.00;96815.16;4981175;28;20207;-69
2023/01/06 04:10:28;;;;;;;7.00;3.57;;;;;;;8.50;100.00;96805.03;4981767;28;20215;-69
2023/01/06 04:12:53;;;;;;;6.80;3.30;;;;;;;8.39;100.00;96811.47;4981250;28;20207;-69
2023/01/06 04:15:21;;;;;;;5.97;3.30;;;;;;;8.46;100.00;96807.28;4980693;28;20254;-69
2023/01/06 04:17:49;;;;;;;7.23;3.20;;;;;;;8.33;100.00;96812.91;4981168;28;20214;-69
2023/01/06 04:20:18;;;;;;;7.67;3.53;;;;;;;8.38;100.00;96812.47;4981282;28;20210;-69
2023/01/06 04:22:47;;;;;;;5.17;3.33;;;;;;;8.48;100.00;96815.81;4980908;28;20242;-69
2023/01/06 04:25:13;;;;;;;7.33;3.90;;;;;;;8.31;100.00;96816.66;4979863;28;20207;-69
2023/01/06 04:27:40;;;;;;;7.27;4.03;;;;;;;8.04;100.00;96821.91;4980908;28;20214;-69
2023/01/06 04:30:07;;;;;;;8.23;4.07;;;;;;;8.16;100.00;96816.34;4981139;28;20215;-69
2023/01/06 04:32:34;;;;;;;7.73;3.70;;;;;;;8.22;100.00;96820.19;4980673;28;20230;-69
2023/01/06 04:35:00;;;;;;;6.33;3.50;;;;;;;8.25;100.00;96823.34;4980234;28;20207;-69
2023/01/06 04:37:27;;;;;;;7.77;4.20;;;;;;;8.09;100.00;96827.56;4980832;28;20681;-69
2023/01/06 04:39:54;;;;;;;10.23;5.40;;;;;;;8.20;100.00;96820.31;4980641;28;20214;-69
2023/01/06 04:42:21;;;;;;;6.80;4.20;;;;;;;8.27;100.00;96817.94;4980551;28;20227;-69
2023/01/06 04:44:47;;;;;;;6.47;3.70;;;;;;;8.25;100.00;96825.13;4980296;28;20207;-69
2023/01/06 04:47:14;;;;;;;9.07;5.00;;;;;;;8.26;100.00;96813.66;4980794;28;20239;-69
2023/01/06 04:49:41;;;;;;;8.37;4.43;;;;;;;8.31;100.00;96817.50;4980229;28;20226;-69
2023/01/06 04:52:08;;;;;;;7.53;4.30;;;;;;;8.28;100.00;96803.84;4980667;28;20999;-69
2023/01/06 04:54:35;;;;;;;7.30;4.20;;;;;;;8.29;100.00;96811.56;4979614;28;20207;-69
2023/01/06 04:57:03;;;;;;;7.90;4.37;;;;;;;8.46;100.00;96805.47;4980151;28;20334;-69
2023/01/06 04:59:29;;;;;;;10.77;5.20;;;;;;;8.42;100.00;96805.94;4979517;28;20208;-69
2023/01/06 05:01:56;;;;;;;10.80;5.67;;;;;;;8.42;100.00;96798.88;4980720;28;20257;-69
2023/01/06 05:04:22;;;;;;;9.17;5.00;;;;;;;8.43;100.00;96792.66;4979512;28;20227;-69
2023/01/06 05:06:49;;;;;;;11.40;4.77;;;;;;;8.44;100.00;96796.09;4980341;28;20233;-69
2023/01/06 05:09:15;;;;;;;12.20;5.17;;;;;;;8.42;100.00;96798.06;4980392;28;20214;-69
2023/01/06 05:11:42;;;;;;;9.90;5.33;;;;;;;8.40;100.00;96797.38;4980325;28;20203;-69
2023/01/06 05:14:10;;;;;;;11.87;5.93;;;;;;;8.50;100.00;96794.53;4979033;28;20694;-69
2023/01/06 05:16:37;;;;;;;14.30;5.80;;;;;;;8.51;100.00;96798.81;4980349;28;20374;-69
2023/01/06 05:19:03;;;;;;;14.53;5.80;;;;;;;8.42;100.00;96798.06;4980604;28;20218;-69
2023/01/06 05:21:30;;;;;;;13.73;5.97;;;;;;;8.48;100.00;96792.19;4979774;28;20226;-68
2023/01/06 05:23:57;;;;;;;17.33;6.47;;;;;;;8.45;100.00;96801.19;4979214;28;20219;-69
2023/01/06 05:26:26;;;;;;;16.10;7.17;;;;;;;8.36;100.00;96796.84;4980476;28;20230;-69
2023/01/06 05:28:53;;;;;;;14.20;6.47;;;;;;;8.33;100.00;96801.59;4980121;28;20199;-69
2023/01/06 05:31:21;;;;;;;18.80;6.90;;;;;;;8.29;100.00;96789.75;4979834;28;20207;-69
2023/01/06 05:33:47;;;;;;;17.17;7.40;;;;;;;8.26;100.00;96803.16;4979125;28;20208;-69
2023/01/06 05:36:16;;;;;;;19.27;7.73;;;;;;;8.32;100.00;96797.31;4979367;28;20226;-69
2023/01/06 05:38:42;;;;;;;17.77;7.27;;;;;;;8.27;100.00;96803.00;4980076;28;20219;-69
2023/01/06 05:41:09;;;;;;;22.87;7.63;;;;;;;8.33;100.00;96807.66;4979688;28;20207;-69
2023/01/06 05:43:36;;;;;;;17.57;7.67;;;;;;;8.27;100.00;96799.56;4978817;28;20203;-69
2023/01/06 05:46:07;;;;;;;22.40;7.63;;;;;;;8.35;100.00;96804.88;4979616;28;20227;-69
2023/01/06 05:48:35;;;;;;;20.23;7.93;;;;;;;8.26;100.00;96796.13;4979292;28;20218;-69
2023/01/06 05:51:02;;;;;;;24.27;6.97;;;;;;;8.22;100.00;96804.44;4979334;28;20207;-69
2023/01/06 05:53:31;;;;;;;21.10;8.43;;;;;;;8.17;100.00;96785.66;4979282;28;20211;-69
2023/01/06 05:55:59;;;;;;;22.63;8.60;;;;;;;8.21;100.00;96795.72;4979184;28;20223;-69
2023/01/06 05:58:26;;;;;;;22.43;8.90;;;;;;;8.23;100.00;96795.56;4979658;28;20211;-69
2023/01/06 06:00:52;;;;;;;22.57;9.60;;;;;;;8.26;100.00;96784.78;4979157;28;20211;-69
2023/01/06 06:03:19;;;;;;;27.43;10.80;;;;;;;8.23;100.00;96785.09;4979262;28;20223;-69
2023/01/06 06:05:47;;;;;;;23.63;9.97;;;;;;;8.35;100.00;96778.63;4980108;28;20592;-69
2023/01/06 06:08:13;;;;;;;20.00;8.10;;;;;;;8.01;100.00;96785.47;4979302;28;20207;-69
2023/01/06 06:10:40;;;;;;;22.17;8.77;;;;;;;8.09;100.00;96793.44;4979091;28;20210;-69
2023/01/06 06:13:06;;;;;;;25.00;9.43;;;;;;;8.17;100.00;96790.91;4979393;28;20207;-69
2023/01/06 06:15:33;;;;;;;28.37;9.63;;;;;;;8.01;100.00;96795.97;4978015;28;20235;-69
2023/01/06 06:18:01;;;;;;;24.40;8.53;;;;;;;8.22;100.00;96788.66;4979312;28;20211;-69
2023/01/06 06:20:27;;;;;;;23.23;9.97;;;;;;;8.22;100.00;96788.66;4979074;28;20207;-69
2023/01/06 06:22:55;;;;;;;26.33;9.13;;;;;;;8.30;100.00;96788.75;4978688;28;20227;-69
2023/01/06 06:25:22;;;;;;;23.43;8.23;;;;;;;8.06;100.00;96789.31;4978627;28;20241;-69
2023/01/06 06:27:48;;;;;;;25.20;9.77;;;;;;;8.19;100.00;96787.16;4979153;28;20215;-69
2023/01/06 06:30:15;;;;;;;25.50;9.00;;;;;;;8.20;100.00;96793.25;4979143;28;20226;-69
2023/01/06 06:32:42;;;;;;;29.37;10.00;;;;;;;8.05;100.00;96797.34;4978194;28;20203;-69
2023/01/06 06:35:09;;;;;;;24.93;9.20;;;;;;;8.17;100.00;96793.53;4978150;28;20592;-69
2023/01/06 06:37:35;;;;;;;22.60;7.70;;;;;;;8.07;100.00;96801.47;4978882;28;20586;-69
2023/01/06 06:40:04;;;;;;;26.03;9.83;;;;;;;8.30;100.00;96801.88;4978670;28;20214;-68
2023/01/06 06:42:30;;;;;;;24.63;9.93;;;;;;;8.31;100.00;96800.91;4977860;28;20227;-69
2023/01/06 06:44:57;;;;;;;23.67;9.37;;;;;;;8.08;100.00;96802.28;4978106;28;20675;-69
2023/01/06 06:47:23;;;;;;;24.90;10.07;;;;;;;8.26;100.00;96801.38;4978077;28;20234;-69
2023/01/06 06:49:51;;;;;;;23.87;9.57;;;;;;;8.11;100.00;96791.50;4978732;28;20230;-69
2023/01/06 06:52:17;;;;;;;25.63;8.57;;;;;;;8.09;100.00;96793.44;4978338;28;20203;-68
2023/01/06 06:54:43;;;;;;;27.30;9.50;;;;;;;8.15;100.00;96787.63;4977462;28;20196;-69
2023/01/06 06:57:11;;;;;;;19.60;7.47;;;;;;;8.26;100.00;96788.25;4978096;28;20242;-68
2023/01/06 06:59:38;;;;;;;28.80;10.67;;;;;;;8.17;100.00;96788.28;4978375;28;20203;-69
2023/01/06 07:02:04;;;;;;;24.37;8.53;;;;;;;8.12;100.00;96785.25;4978566;28;20231;-69
2023/01/06 07:04:31;;;;;;;21.90;8.93;;;;;;;8.17;100.00;96791.75;4977283;28;20214;-69
2023/01/06 07:06:57;;;;;;;23.30;8.77;;;;;;;8.15;100.00;96783.19;4978474;28;20227;-69
2023/01/06 07:09:24;;;;;;;26.53;9.47;;;;;;;8.06;100.00;96794.56;4977704;28;20586;-69
2023/01/06 07:11:50;;;;;;;17.47;6.17;;;;;;;7.75;100.00;96795.03;4978306;28;20199;-69
2023/01/06 07:14:18;;;;;;;24.27;8.43;;;;;;;7.86;100.00;96802.69;4977268;28;20215;-69
2023/01/06 07:16:45;;;;;;;24.67;8.90;;;;;;;7.92;100.00;96796.88;4977511;28;20765;-69
2023/01/06 07:19:11;;;;;;;22.10;8.37;;;;;;;7.97;100.00;96794.63;4977752;28;20683;-69
2023/01/06 07:21:38;;;;;;;20.50;8.67;;;;;;;7.95;100.00;96797.38;4977731;28;20653;-69
2023/01/06 07:24:05;;;;;;;23.67;8.60;;;;;;;7.92;100.00;96797.69;4976989;28;20281;-69
2023/01/06 07:26:31;;;;;;;21.07;8.30;;;;;;;7.86;100.00;96810.56;4978117;28;20231;-69
2023/01/06 07:28:58;;;;;;;21.23;8.73;;;;;;;7.95;100.00;96807.06;4978007;28;20204;-69
2023/01/06 07:31:26;;;;;;;25.57;10.43;;;;;;;8.12;100.00;96814.13;4978536;28;20218;-69
2023/01/06 07:33:52;;;;;;;27.47;10.07;;;;;;;8.03;100.00;96809.75;4977359;28;20294;-69
2023/01/06 07:36:19;;;;;;;40.50;13.37;;;;;;;8.08;100.00;96812.78;4978248;28;20404;-69
2023/01/06 07:38:45;;;;;;;46.30;18.17;;;;;;;8.03;100.00;96815.00;4977261;28;20834;-69
2023/01/06 07:41:12;;;;;;;36.03;16.17;;;;;;;7.91;100.00;96819.63;4977990;28;20234;-69
2023/01/06 07:43:38;;;;;;;26.27;10.73;;;;;;;7.98;100.00;96825.13;4976908;28;20246;-69
2023/01/06 07:46:05;;;;;;;20.20;8.47;;;;;;;7.91;100.00;96827.50;4977968;28;20227;-69
2023/01/06 07:48:32;;;;;;;24.30;10.70;;;;;;;7.99;100.00;96818.91;4977745;28;20206;-69
2023/01/06 07:50:59;;;;;;;24.57;8.37;;;;;;;7.85;100.00;96814.16;4977790;28;20207;-68
2023/01/06 07:53:26;;;;;;;19.07;7.93;;;;;;;7.93;100.00;96822.13;4977697;28;20560;-69
2023/01/06 07:55:52;;;;;;;25.40;9.73;;;;;;;7.91;100.00;96824.88;4977282;28;20234;-69
2023/01/06 07:58:19;;;;;;;25.37;10.67;;;;;;;7.94;100.00;96821.16;4977607;28;20203;-69
2023/01/06 08:00:46;;;;;;;23.80;7.57;;;;;;;7.97;100.00;96820.88;4977353;28;20210;-68
2023/01/06 08:03:12;;;;;;;24.30;9.87;;;;;;;8.03;100.00;96825.50;4977656;28;20301;-69
2023/01/06 08:05:43;;;;;;;30.13;10.53;;;;;;;8.13;100.00;96823.66;4976528;28;20219;-69
2023/01/06 08:08:11;;;;;;;20.50;7.43;;;;;;;8.09;100.00;96817.88;4978162;28;20242;-69
2023/01/06 08:10:39;;;;;;;21.63;7.77;;;;;;;8.04;100.00;96828.00;4977204;28;20210;-69
2023/01/06 08:13:06;;;;;;;20.43;7.80;;;;;;;7.97;100.00;96826.13;4977242;28;20270;-69
2023/01/06 08:15:32;;;;;;;15.33;5.83;;;;;;;7.89;100.00;96828.63;4975725;28;20235;-68
2023/01/06 08:17:59;;;;;;;14.50;5.33;;;;;;;7.91;100.00;96826.69;4977638;28;20241;-68
2023/01/06 08:20:25;;;;;;;17.97;6.33;;;;;;;8.02;100.00;96834.38;4976878;28;20931;-69
2023/01/06 08:22:53;;;;;;;16.40;6.00;;;;;;;8.07;100.00;96837.34;4977363;28;20223;-68
2023/01/06 08:25:20;;;;;;;22.90;7.33;;;;;;;7.95;100.00;96828.06;4976882;28;21248;-69
2023/01/06 08:27:46;;;;;;;19.27;6.97;;;;;;;8.06;100.00;96830.47;4977410;28;20207;-68
2023/01/06 08:30:15;;;;;;;17.73;7.30;;;;;;;8.07;100.00;96832.09;4977059;28;20211;-69
2023/01/06 08:32:41;;;;;;;23.17;8.37;;;;;;;8.25;100.00;96833.84;4979732;28;20285;-68
2023/01/06 08:35:08;;;;;;;24.27;7.93;;;;;;;8.25;100.00;96830.38;4979773;28;20224;-68
2023/01/06 08:37:35;;;;;;;20.07;7.13;;;;;;;8.37;100.00;96829.19;4980807;28;20245;-68
2023/01/06 08:40:04;;;;;;;17.67;6.53;;;;;;;8.24;100.00;96845.31;4981233;28;20211;-68
2023/01/06 08:42:31;;;;;;;18.63;5.50;;;;;;;8.12;100.00;96840.38;4980275;28;20301;-68
2023/01/06 08:44:57;;;;;;;22.40;6.50;;;;;;;8.21;100.00;96844.78;4979819;28;20208;-68
2023/01/06 08:47:24;;;;;;;18.83;6.40;;;;;;;8.36;100.00;96848.53;4981275;28;20229;-69
2023/01/06 08:49:50;;;;;;;18.03;6.40;;;;;;;8.22;100.00;96849.91;4980854;28;20215;-69
2023/01/06 08:52:16;;;;;;;22.30;6.67;;;;;;;8.18;100.00;96851.13;4980001;28;20211;-68
2023/01/06 08:54:43;;;;;;;40.67;16.23;;;;;;;8.29;100.00;96853.56;4980272;28;20203;-68
2023/01/06 08:57:11;;;;;;;110.00;22.03;;;;;;;8.51;100.00;96853.97;4980544;28;20227;-68
2023/01/06 08:59:37;;;;;;;19.90;7.73;;;;;;;8.41;100.00;96859.44;4980806;28;20211;-68
2023/01/06 09:02:04;;;;;;;19.77;7.40;;;;;;;8.46;100.00;96870.31;4980331;28;20211;-68
2023/01/06 09:04:30;;;;;;;42.13;10.23;;;;;;;8.24;100.00;96871.56;4979763;28;20248;-68
2023/01/06 09:06:56;;;;;;;22.93;7.47;;;;;;;8.40;100.00;96881.41;4978981;28;20242;-68
2023/01/06 09:09:23;;;;;;;17.53;7.17;;;;;;;8.41;100.00;96869.94;4979039;28;20211;-69
2023/01/06 09:11:49;;;;;;;30.77;13.00;;;;;;;8.49;100.00;96879.56;4978627;28;20199;-69
2023/01/06 09:14:17;;;;;;;17.33;5.77;;;;;;;8.43;100.00;96884.56;4978768;28;20691;-68
2023/01/06 09:16:46;;;;;;;24.40;7.10;;;;;;;8.14;100.00;96885.72;4978806;28;20235;-68
2023/01/06 09:19:13;;;;;;;36.40;11.60;;;;;;;8.26;100.00;96879.28;4978985;28;20886;-68
2023/01/06 09:21:41;;;;;;;19.33;7.57;;;;;;;8.19;100.00;96886.13;4978971;28;20233;-69
2023/01/06 09:24:12;;;;;;;17.23;5.70;;;;;;;8.15;100.00;96877.69;4978676;28;20694;-68
2023/01/06 09:26:38;;;;;;;23.03;7.90;;;;;;;8.32;100.00;96890.03;4980021;28;20235;-68
2023/01/06 09:29:05;;;;;;;20.87;7.53;;;;;;;8.21;100.00;96898.13;4980170;28;20206;-69
2023/01/06 09:31:33;;;;;;;19.90;8.13;;;;;;;8.36;100.00;96901.88;4980419;28;20211;-68
2023/01/06 09:33:59;;;;;;;18.50;5.90;;;;;;;8.21;100.00;96902.53;4978308;28;20672;-68
2023/01/06 09:36:26;;;;;;;18.40;6.33;;;;;;;8.21;100.00;96906.00;4980148;28;20227;-68
2023/01/06 09:38:52;;;;;;;28.13;8.87;;;;;;;8.17;100.00;96901.16;4979453;28;20207;-69
2023/01/06 09:41:46;;;;;;;20.37;6.83;;;;;;;8.51;100.00;96903.88;4979423;28;20215;-69
2023/01/06 09:44:15;;;;;;;18.53;6.10;;;;;;;8.56;100.00;96908.66;4978637;28;20223;-69
2023/01/06 09:46:46;;;;;;;16.03;5.97;;;;;;;8.64;100.00;96906.97;4978932;28;20710;-68
2023/01/06 09:49:20;;;;;;;15.67;6.73;;;;;;;8.72;100.00;96901.78;4979963;28;20211;-68
2023/01/06 09:51:46;;;;;;;18.03;6.27;;;;;;;8.58;100.00;96896.22;4979070;28;20571;-68
2023/01/06 09:54:17;;;;;;;17.17;6.30;;;;;;;8.64;100.00;96899.09;4978928;28;20203;-69
2023/01/06 09:56:49;;;;;;;17.57;6.13;;;;;;;8.76;100.00;96900.50;4980325;28;20310;-69
2023/01/06 09:59:22;;;;;;;20.80;7.87;;;;;;;8.84;100.00;96902.38;4979631;28;20218;-68
2023/01/06 10:01:50;;;;;;;17.50;7.13;;;;;;;8.65;100.00;96898.09;4979104;28;20203;-68
2023/01/06 10:04:22;;;;;;;14.57;6.17;;;;;;;8.70;100.00;96898.47;4979310;28;20227;-68
2023/01/06 10:06:58;;;;;;;14.90;5.40;;;;;;;8.81;100.00;96895.63;4979252;28;20238;-68
2023/01/06 10:09:34;;;;;;;14.87;5.97;;;;;;;8.89;100.00;96887.00;4979526;28;20207;-68
2023/01/06 10:12:13;;;;;;;14.47;5.63;;;;;;;8.99;100.00;96880.69;4979457;28;20207;-68
2023/01/06 10:14:53;;;;;;;19.40;6.40;;;;;;;9.11;100.00;96880.28;4978340;28;20214;-69
2023/01/06 10:17:38;;;;;;;14.43;5.33;;;;;;;9.22;100.00;96876.59;4979239;28;20241;-68
2023/01/06 10:20:20;;;;;;;20.47;6.33;;;;;;;9.17;100.00;96874.41;4979191;28;20761;-69
2023/01/06 10:22:56;;;;;;;18.53;6.10;;;;;;;9.25;100.00;96876.28;4979492;28;20218;-68
2023/01/06 10:25:31;;;;;;;12.03;4.97;;;;;;;9.04;100.00;96880.22;4979043;28;20233;-68
2023/01/06 10:28:02;;;;;;;14.30;5.80;;;;;;;8.94;100.00;96874.22;4979153;28;20222;-68
2023/01/06 10:30:33;;;;;;;16.83;6.17;;;;;;;9.03;100.00;96876.75;4978699;28;20222;-68
2023/01/06 10:33:01;;;;;;;14.00;5.90;;;;;;;9.07;100.00;96867.59;4978792;28;20676;-68
2023/01/06 10:35:28;;;;;;;14.97;6.10;;;;;;;8.89;100.00;96872.03;4977793;28;20250;-68
2023/01/06 10:37:57;;;;;;;11.63;4.90;;;;;;;9.14;100.00;96860.75;4979059;28;20204;-68
2023/01/06 10:40:25;;;;;;;14.77;5.97;;;;;;;9.28;100.00;96862.84;4979243;28;20215;-69
2023/01/06 10:42:55;;;;;;;15.33;6.63;;;;;;;9.19;100.00;96858.50;4977996;28;20729;-68
2023/01/06 10:45:22;;;;;;;22.80;6.67;;;;;;;9.35;100.00;96854.16;4977977;28;20227;-68
2023/01/06 10:47:49;;;;;;;17.10;6.17;;;;;;;9.34;100.00;96849.88;4978864;28;21154;-68
2023/01/06 10:50:18;;;;;;;12.40;4.90;;;;;;;9.41;100.00;96850.91;4978254;28;20207;-68
2023/01/06 10:52:47;;;;;;;14.10;5.23;;;;;;;9.33;100.00;96864.00;4978065;28;20207;-68
2023/01/06 10:55:28;;;;;;;14.23;5.40;;;;;;;9.49;100.00;96855.41;4977201;28;20200;-68
2023/01/06 10:57:59;;;;;;;12.67;5.00;;;;;;;9.53;100.00;96856.72;4977908;28;20207;-68
2023/01/06 11:00:26;;;;;;;9.37;4.40;;;;;;;9.44;100.00;96845.31;4977742;28;21064;-68
2023/01/06 11:02:54;;;;;;;7.37;3.57;;;;;;;9.54;100.00;96837.34;4978344;28;20583;-68
2023/01/06 11:05:24;;;;;;;6.37;3.27;;;;;;;9.77;100.00;96826.91;4977521;28;20231;-69
2023/01/06 11:07:56;;;;;;;10.10;3.93;;;;;;;9.83;100.00;96823.66;4978669;28;20206;-69
2023/01/06 11:10:29;;;;;;;6.87;3.17;;;;;;;9.76;100.00;96813.91;4978538;28;20286;-68
2023/01/06 11:12:58;;;;;;;10.27;3.37;;;;;;;9.96;100.00;96815.38;4978101;28;20774;-69
2023/01/06 11:15:34;;;;;;;5.90;2.87;;;;;;;10.03;100.00;96811.09;4976628;28;20238;-69
2023/01/06 11:18:00;;;;;;;8.87;3.47;;;;;;;9.91;100.00;96815.78;4978396;28;20883;-69
2023/01/06 11:20:31;;;;;;;6.43;3.13;;;;;;;10.10;100.00;96818.19;4978388;28;20218;-69
2023/01/06 11:23:13;;;;;;;8.47;3.50;;;;;;;10.20;100.00;96818.09;4978025;28;20203;-69
2023/01/06 11:25:40;;;;;;;7.30;3.20;;;;;;;9.95;100.00;96809.25;4976756;28;20223;-68
2023/01/06 11:28:17;;;;;;;10.73;3.60;;;;;;;9.95;100.00;96814.53;4978214;28;20211;-68
2023/01/06 11:30:51;;;;;;;10.90;3.60;;;;;;;9.92;100.00;96809.56;4977293;28;20203;-68
2023/01/06 11:33:20;;;;;;;8.70;3.10;;;;;;;10.01;100.00;96808.63;4977801;28;20254;-69
2023/01/06 11:35:48;;;;;;;7.93;3.60;;;;;;;10.06;100.00;96806.34;4976986;28;20223;-69
2023/01/06 11:38:17;;;;;;;5.73;2.70;;;;;;;10.05;100.00;96803.88;4977528;28;21044;-69
2023/01/06 11:40:46;;;;;;;11.07;3.63;;;;;;;10.03;100.00;96795.28;4977745;28;20201;-68
2023/01/06 11:43:16;;;;;;;6.83;3.33;;;;;;;9.83;100.00;96794.72;4977441;28;20218;-68